Time,TemperatureF,DewpointF,PressureIn,WindDirection,WindDirectionDegrees,WindSpeedMPH,WindSpeedGustMPH,Humidity,HourlyPrecipIn,Conditions,Clouds,dailyrainin,SoftwareType,DateUTC
2013-09-07 00:02:00,73.1,13.4,30.04,ESE,113,1.3,2.5,1,0.00,,,0.00,WUHU216HW,2013-09-07 05:02:00,
2013-09-07 00:07:00,72.9,13.2,30.04,ESE,113,1.3,2.5,1,0.00,,,0.00,WUHU216HW,2013-09-07 05:07:00,
2013-09-07 00:12:00,72.7,13.2,30.04,SE,135,0.9,1.3,1,0.00,,,0.00,WUHU216HW,2013-09-07 05:12:00,
2013-09-07 00:17:00,72.7,13.2,30.04,SE,135,2.5,2.5,1,0.00,,,0.00,WUHU216HW,2013-09-07 05:17:00,
2013-09-07 00:22:00,72.9,13.2,30.04,SSE,158,1.8,2.5,1,0.00,,,0.00,WUHU216HW,2013-09-07 05:22:00,
2013-09-07 00:27:00,72.9,13.2,30.04,SE,135,0.9,2.5,1,0.00,,,0.00,WUHU216HW,2013-09-07 05:27:00,
2013-09-07 00:32:00,72.7,13.2,30.04,SE,135,1.1,1.8,1,0.00,,,0.00,WUHU216HW,2013-09-07 05:32:00,
2013-09-07 00:37:00,72.4,12.8,30.04,SE,135,0.4,1.3,1,0.00,,,0.00,WUHU216HW,2013-09-07 05:37:00,
2013-09-07 00:42:00,72.4,12.8,30.04,SE,135,1.1,1.1,1,0.00,,,0.00,WUHU216HW,2013-09-07 05:42:00,
2013-09-07 00:47:00,72.4,12.8,30.04,SE,135,2.5,2.5,1,0.00,,,0.00,WUHU216HW,2013-09-07 05:47:00,
2013-09-07 00:52:00,72.4,12.8,30.04,SE,135,2.9,2.9,1,0.00,,,0.00,WUHU216HW,2013-09-07 05:52:00,
2013-09-07 00:57:00,72.4,12.8,30.04,SE,135,1.1,2.9,1,0.00,,,0.00,WUHU216HW,2013-09-07 05:57:00,
2013-09-07 01:02:00,72.4,12.8,30.04,SE,135,1.8,2.9,1,0.00,,,0.00,WUHU216HW,2013-09-07 06:02:00,
2013-09-07 01:07:00,72.4,12.8,30.04,SE,135,0.9,2.0,1,0.00,,,0.00,WUHU216HW,2013-09-07 06:07:00,
2013-09-07 01:12:00,72.4,12.8,30.04,SE,135,0.7,2.5,1,0.00,,,0.00,WUHU216HW,2013-09-07 06:12:00,
2013-09-07 01:17:00,72.4,12.8,30.04,SE,135,1.8,2.5,1,0.00,,,0.00,WUHU216HW,2013-09-07 06:17:00,
2013-09-07 01:22:00,72.5,13.0,30.04,SSE,158,1.1,2.0,1,0.00,,,0.00,WUHU216HW,2013-09-07 06:22:00,
2013-09-07 01:27:00,72.7,13.2,30.04,SSE,158,2.9,2.9,1,0.00,,,0.00,WUHU216HW,2013-09-07 06:27:00,
2013-09-07 01:32:00,73.1,13.4,30.04,SE,135,2.5,2.9,1,0.00,,,0.00,WUHU216HW,2013-09-07 06:32:00,
2013-09-07 01:37:00,73.1,13.4,30.04,SE,135,1.6,2.9,1,0.00,,,0.00,WUHU216HW,2013-09-07 06:37:00,
2013-09-07 01:42:00,73.1,13.4,30.04,SSE,158,0.9,2.5,1,0.00,,,0.00,WUHU216HW,2013-09-07 06:42:00,
2013-09-07 01:47:00,73.3,13.5,30.04,SSE,158,0.9,1.8,1,0.00,,,0.00,WUHU216HW,2013-09-07 06:47:00,
2013-09-07 01:52:00,73.3,13.5,30.03,SSE,158,0.9,1.8,1,0.00,,,0.00,WUHU216HW,2013-09-07 06:52:00,
2013-09-07 01:57:00,73.1,13.4,30.04,SSE,158,2.5,3.4,1,0.00,,,0.00,WUHU216HW,2013-09-07 06:57:00,
2013-09-07 02:02:00,73.1,13.4,30.04,SSW,203,1.6,3.4,1,0.00,,,0.00,WUHU216HW,2013-09-07 07:02:00,
2013-09-07 02:07:00,73.1,13.4,30.04,SE,135,3.4,3.4,1,0.00,,,0.00,WUHU216HW,2013-09-07 07:07:00,
2013-09-07 02:12:00,73.1,13.4,30.03,SSE,158,1.1,3.4,1,0.00,,,0.00,WUHU216HW,2013-09-07 07:12:00,
2013-09-07 02:17:00,73.1,13.4,30.04,SE,135,1.6,3.4,1,0.00,,,0.00,WUHU216HW,2013-09-07 07:17:00,
2013-09-07 02:22:00,73.1,13.4,30.04,SSE,158,3.1,3.1,1,0.00,,,0.00,WUHU216HW,2013-09-07 07:22:00,
2013-09-07 02:27:00,72.9,13.2,30.04,ESE,113,0.4,3.1,1,0.00,,,0.00,WUHU216HW,2013-09-07 07:27:00,
2013-09-07 02:32:00,72.9,13.2,30.04,SSE,158,2.0,3.1,1,0.00,,,0.00,WUHU216HW,2013-09-07 07:32:00,
2013-09-07 02:37:00,72.9,13.2,30.03,SSE,158,1.8,2.5,1,0.00,,,0.00,WUHU216HW,2013-09-07 07:37:00,
2013-09-07 02:42:00,72.9,13.2,30.03,SE,135,0.7,2.5,1,0.00,,,0.00,WUHU216HW,2013-09-07 07:42:00,
2013-09-07 02:47:00,73.1,13.4,30.03,SSW,203,2.5,2.7,1,0.00,,,0.00,WUHU216HW,2013-09-07 07:47:00,
2013-09-07 02:52:00,72.9,13.2,30.03,South,180,1.3,2.7,1,0.00,,,0.00,WUHU216HW,2013-09-07 07:52:00,
2013-09-07 02:57:00,72.9,13.2,30.03,SSE,158,1.8,2.7,1,0.00,,,0.00,WUHU216HW,2013-09-07 07:57:00,
2013-09-07 03:02:00,72.7,13.2,30.03,SSW,203,0.0,2.7,1,0.00,,,0.00,WUHU216HW,2013-09-07 08:02:00,
2013-09-07 03:07:00,72.7,13.2,30.03,South,180,1.3,1.8,1,0.00,,,0.00,WUHU216HW,2013-09-07 08:07:00,
2013-09-07 03:12:00,72.5,13.0,30.03,SE,135,0.7,1.8,1,0.00,,,0.00,WUHU216HW,2013-09-07 08:12:00,
2013-09-07 03:17:00,72.4,12.8,30.03,SSE,158,2.5,2.5,1,0.00,,,0.00,WUHU216HW,2013-09-07 08:17:00,
2013-09-07 03:22:00,72.4,12.8,30.03,ESE,113,1.1,2.5,1,0.00,,,0.00,WUHU216HW,2013-09-07 08:22:00,
2013-09-07 03:27:00,72.2,12.7,30.03,South,180,0.7,3.1,1,0.00,,,0.00,WUHU216HW,2013-09-07 08:27:00,
2013-09-07 03:32:00,72.2,12.7,30.03,SSW,203,2.2,3.4,1,0.00,,,0.00,WUHU216HW,2013-09-07 08:32:00,
2013-09-07 03:37:00,72.0,12.5,30.03,SSE,158,1.3,3.4,1,0.00,,,0.00,WUHU216HW,2013-09-07 08:37:00,
2013-09-07 03:42:00,71.8,12.4,30.03,SSE,158,3.4,3.4,1,0.00,,,0.00,WUHU216HW,2013-09-07 08:42:00,
2013-09-07 03:47:00,71.8,12.4,30.03,SW,225,3.8,3.8,1,0.00,,,0.00,WUHU216HW,2013-09-07 08:47:00,
2013-09-07 03:52:00,71.8,12.4,30.03,SSE,158,4.7,4.7,1,0.00,,,0.00,WUHU216HW,2013-09-07 08:52:00,
2013-09-07 03:57:00,71.8,12.4,30.03,SSE,158,1.3,4.7,1,0.00,,,0.00,WUHU216HW,2013-09-07 08:57:00,
2013-09-07 04:02:00,71.8,12.4,30.03,SSE,158,1.8,4.7,1,0.00,,,0.00,WUHU216HW,2013-09-07 09:02:00,
2013-09-07 04:07:00,71.6,12.2,30.03,SSW,203,1.3,3.4,1,0.00,,,0.00,WUHU216HW,2013-09-07 09:07:00,
2013-09-07 04:12:00,71.6,12.2,30.03,SE,135,1.8,1.8,1,0.00,,,0.00,WUHU216HW,2013-09-07 09:12:00,
2013-09-07 04:17:00,71.6,12.2,30.03,SSE,158,2.0,2.9,1,0.00,,,0.00,WUHU216HW,2013-09-07 09:17:00,
2013-09-07 04:22:00,71.6,12.2,30.03,SSW,203,3.6,3.6,1,0.00,,,0.00,WUHU216HW,2013-09-07 09:22:00,
2013-09-07 04:27:00,71.6,12.2,30.03,SSW,203,1.6,3.6,1,0.00,,,0.00,WUHU216HW,2013-09-07 09:27:00,
2013-09-07 04:32:00,71.6,12.2,30.04,SSE,158,2.7,3.6,1,0.00,,,0.00,WUHU216HW,2013-09-07 09:32:00,
2013-09-07 04:37:00,71.8,12.4,30.04,SSE,158,1.8,2.7,1,0.00,,,0.00,WUHU216HW,2013-09-07 09:37:00,
2013-09-07 04:42:00,71.6,12.2,30.03,SSE,158,1.3,2.7,1,0.00,,,0.00,WUHU216HW,2013-09-07 09:42:00,
2013-09-07 04:47:00,71.6,12.2,30.04,SSE,158,1.1,2.0,1,0.00,,,0.00,WUHU216HW,2013-09-07 09:47:00,
2013-09-07 04:52:00,71.1,11.8,30.03,SSE,158,2.5,2.9,1,0.00,,,0.00,WUHU216HW,2013-09-07 09:52:00,
2013-09-07 04:57:00,71.3,12.0,30.03,SW,225,1.6,2.9,1,0.00,,,0.00,WUHU216HW,2013-09-07 09:57:00,
2013-09-07 05:02:00,71.3,12.0,30.04,South,180,1.1,2.5,1,0.00,,,0.00,WUHU216HW,2013-09-07 10:02:00,
2013-09-07 05:07:00,71.3,12.0,30.04,SSE,158,4.3,4.3,1,0.00,,,0.00,WUHU216HW,2013-09-07 10:07:00,
2013-09-07 05:12:00,71.3,12.0,30.04,SW,225,1.1,4.3,1,0.00,,,0.00,WUHU216HW,2013-09-07 10:12:00,
2013-09-07 05:17:00,71.3,12.0,30.03,SW,225,0.4,4.3,1,0.00,,,0.00,WUHU216HW,2013-09-07 10:17:00,
2013-09-07 05:22:00,71.1,11.8,30.03,SSE,158,4.0,4.0,1,0.00,,,0.00,WUHU216HW,2013-09-07 10:22:00,
2013-09-07 05:27:00,71.1,11.8,30.04,South,180,3.6,4.0,1,0.00,,,0.00,WUHU216HW,2013-09-07 10:27:00,
2013-09-07 05:32:00,71.3,12.0,30.04,SSE,158,2.0,4.0,1,0.00,,,0.00,WUHU216HW,2013-09-07 10:32:00,
2013-09-07 05:37:00,71.3,12.0,30.04,NNW,338,0.4,4.0,1,0.00,,,0.00,WUHU216HW,2013-09-07 10:37:00,
2013-09-07 05:42:00,71.3,12.0,30.04,SE,135,1.8,2.0,1,0.00,,,0.00,WUHU216HW,2013-09-07 10:42:00,
2013-09-07 05:47:00,71.3,12.0,30.04,SW,225,0.4,1.8,1,0.00,,,0.00,WUHU216HW,2013-09-07 10:47:00,
2013-09-07 05:52:00,71.1,11.8,30.04,South,180,1.3,1.8,1,0.00,,,0.00,WUHU216HW,2013-09-07 10:52:00,
2013-09-07 05:57:00,71.1,11.8,30.04,SSE,158,1.8,1.8,1,0.00,,,0.00,WUHU216HW,2013-09-07 10:57:00,
2013-09-07 06:02:00,70.9,11.7,30.04,South,180,0.9,4.7,1,0.00,,,0.00,WUHU216HW,2013-09-07 11:02:00,
2013-09-07 06:07:00,70.9,11.7,30.04,SSW,203,1.6,4.7,1,0.00,,,0.00,WUHU216HW,2013-09-07 11:07:00,
2013-09-07 06:12:00,70.6,11.3,30.04,SE,135,3.8,3.8,1,0.00,,,0.00,WUHU216HW,2013-09-07 11:12:00,
2013-09-07 06:17:00,70.6,11.3,30.04,SSE,158,0.2,3.8,1,0.00,,,0.00,WUHU216HW,2013-09-07 11:17:00,
2013-09-07 06:22:00,70.2,11.1,30.05,SSE,158,1.8,3.8,1,0.00,,,0.00,WUHU216HW,2013-09-07 11:22:00,
2013-09-07 06:27:00,69.8,10.8,30.04,SE,135,1.6,2.7,1,0.00,,,0.00,WUHU216HW,2013-09-07 11:27:00,
2013-09-07 06:32:00,69.7,10.7,30.04,South,180,1.3,2.7,1,0.00,,,0.00,WUHU216HW,2013-09-07 11:32:00,
2013-09-07 06:37:00,69.5,10.5,30.04,South,180,5.1,5.1,1,0.00,,,0.00,WUHU216HW,2013-09-07 11:37:00,
2013-09-07 06:42:00,69.5,10.5,30.04,SSE,158,0.4,5.1,1,0.00,,,0.00,WUHU216HW,2013-09-07 11:42:00,
2013-09-07 06:47:00,69.3,10.5,30.04,South,180,0.4,1.6,1,0.00,,,0.00,WUHU216HW,2013-09-07 11:47:00,
2013-09-07 06:52:00,69.3,10.5,30.04,South,180,0.4,1.6,1,0.00,,,0.00,WUHU216HW,2013-09-07 11:52:00,
2013-09-07 06:59:00,69.1,10.3,30.04,SSE,158,1.1,1.1,1,0.00,,,0.00,WUHU216HW,2013-09-07 11:59:00,
2013-09-07 07:04:00,69.1,10.3,30.04,SSE,158,1.1,1.1,1,0.00,,,0.00,WUHU216HW,2013-09-07 12:04:00,
2013-09-07 07:59:00,70.4,11.3,30.05,SW,225,0.4,0.4,1,0.00,,,0.00,WUHU216HW,2013-09-07 12:59:00,
2013-09-07 08:04:00,70.6,11.3,30.05,SSE,158,0.9,0.9,1,0.00,,,0.00,WUHU216HW,2013-09-07 13:04:00,
2013-09-07 08:09:00,72.4,12.8,30.05,South,180,0.4,0.9,1,0.00,,,0.00,WUHU216HW,2013-09-07 13:09:00,
2013-09-07 08:14:00,73.1,13.4,30.05,SSW,203,0.2,0.9,1,0.00,,,0.00,WUHU216HW,2013-09-07 13:14:00,
2013-09-07 08:19:00,73.6,13.8,30.05,SSW,203,1.6,1.6,1,0.00,,,0.00,WUHU216HW,2013-09-07 13:19:00,
2013-09-07 08:24:00,74.5,14.4,30.05,SSW,203,1.1,2.0,1,0.00,,,0.00,WUHU216HW,2013-09-07 13:24:00,
2013-09-07 08:29:00,75.6,15.2,30.05,WSW,248,2.9,2.9,1,0.00,,,0.00,WUHU216HW,2013-09-07 13:29:00,
2013-09-07 08:34:00,76.3,15.9,30.05,SSE,158,0.0,2.9,1,0.00,,,0.00,WUHU216HW,2013-09-07 13:34:00,
2013-09-07 08:39:00,77.0,16.4,30.05,SSE,158,2.2,2.9,1,0.00,,,0.00,WUHU216HW,2013-09-07 13:39:00,
2013-09-07 08:44:00,77.4,16.7,30.05,SW,225,0.0,2.2,1,0.00,,,0.00,WUHU216HW,2013-09-07 13:44:00,
2013-09-07 08:49:00,78.5,17.4,30.05,SSW,203,0.7,2.9,1,0.00,,,0.00,WUHU216HW,2013-09-07 13:49:00,
2013-09-07 08:54:00,79.2,17.9,30.05,SSW,203,0.2,2.9,1,0.00,,,0.00,WUHU216HW,2013-09-07 13:54:00,
2013-09-07 08:59:00,79.7,18.4,30.05,SE,135,1.6,1.6,8,0.00,,,0.00,WUHU216HW,2013-09-07 13:59:00,
2013-09-07 09:04:00,79.9,18.6,30.05,South,180,0.4,1.6,8,0.00,,,0.00,WUHU216HW,2013-09-07 14:04:00,
2013-09-07 09:09:00,80.3,20.5,30.06,SSW,203,0.4,1.6,11,0.00,,,0.00,WUHU216HW,2013-09-07 14:09:00,
2013-09-07 09:14:00,81.4,42.8,30.06,SW,225,2.0,2.5,26,0.00,,,0.00,WUHU216HW,2013-09-07 14:14:00,
2013-09-07 09:19:00,81.4,46.8,30.05,SSW,203,0.4,2.5,30,0.00,,,0.00,WUHU216HW,2013-09-07 14:19:00,
2013-09-07 09:24:00,82.1,41.3,30.06,SW,225,0.4,2.0,24,0.00,,,0.00,WUHU216HW,2013-09-07 14:24:00,
2013-09-07 09:29:00,82.3,50.1,30.06,SW,225,1.3,1.8,33,0.00,,,0.00,WUHU216HW,2013-09-07 14:29:00,
2013-09-07 09:34:00,82.6,49.6,30.06,SSE,158,0.7,2.7,32,0.00,,,0.00,WUHU216HW,2013-09-07 14:34:00,
2013-09-07 09:39:00,82.6,49.6,30.06,West,270,0.9,2.7,32,0.00,,,0.00,WUHU216HW,2013-09-07 14:39:00,
2013-09-07 09:44:00,83.3,54.3,30.06,South,180,0.7,2.5,37,0.00,,,0.00,WUHU216HW,2013-09-07 14:44:00,
2013-09-07 09:49:00,83.5,59.2,30.06,SE,135,1.8,1.8,44,0.00,,,0.00,WUHU216HW,2013-09-07 14:49:00,
2013-09-07 09:54:00,83.9,55.5,30.06,SW,225,2.5,2.5,38,0.00,,,0.00,WUHU216HW,2013-09-07 14:54:00,
2013-09-07 09:59:00,83.9,61.5,30.06,SW,225,1.3,2.5,47,0.00,,,0.00,WUHU216HW,2013-09-07 14:59:00,
2013-09-07 10:04:00,84.2,59.9,30.07,SW,225,0.9,2.5,44,0.00,,,0.00,WUHU216HW,2013-09-07 15:04:00,
2013-09-07 10:09:00,84.6,63.5,30.06,SE,135,1.1,3.8,49,0.00,,,0.00,WUHU216HW,2013-09-07 15:09:00,
2013-09-07 10:14:00,85.1,64.5,30.07,SSE,158,1.8,3.8,50,0.00,,,0.00,WUHU216HW,2013-09-07 15:14:00,
2013-09-07 10:19:00,85.1,65.1,30.06,SW,225,0.4,3.4,51,0.00,,,0.00,WUHU216HW,2013-09-07 15:19:00,
2013-09-07 10:24:00,85.7,64.4,30.07,SSE,158,0.4,3.4,49,0.00,,,0.00,WUHU216HW,2013-09-07 15:24:00,
2013-09-07 10:29:00,85.7,65.0,30.07,SW,225,1.1,1.8,50,0.00,,,0.00,WUHU216HW,2013-09-07 15:29:00,
2013-09-07 10:34:00,86.0,65.9,30.07,South,180,2.5,2.5,51,0.00,,,0.00,WUHU216HW,2013-09-07 15:34:00,
2013-09-07 10:39:00,86.4,66.2,30.07,ESE,113,0.7,2.5,51,0.00,,,0.00,WUHU216HW,2013-09-07 15:39:00,
2013-09-07 10:44:00,86.8,66.5,30.07,WSW,248,3.4,3.8,51,0.00,,,0.00,WUHU216HW,2013-09-07 15:44:00,
2013-09-07 10:49:00,86.4,65.7,30.07,SW,225,5.6,5.6,50,0.00,,,0.00,WUHU216HW,2013-09-07 15:49:00,
2013-09-07 10:54:00,86.8,66.5,30.07,WSW,248,1.1,5.6,51,0.00,,,0.00,WUHU216HW,2013-09-07 15:54:00,
2013-09-07 10:59:00,86.6,66.3,30.07,WSW,248,2.2,5.6,51,0.00,,,0.00,WUHU216HW,2013-09-07 15:59:00,
2013-09-07 11:04:00,86.9,66.7,30.07,SW,225,4.9,5.1,51,0.00,,,0.00,WUHU216HW,2013-09-07 16:04:00,
2013-09-07 11:09:00,86.8,66.5,30.07,SSE,158,1.8,5.1,51,0.00,,,0.00,WUHU216HW,2013-09-07 16:09:00,
2013-09-07 11:14:00,87.1,66.9,30.07,SW,225,0.9,6.9,51,0.00,,,0.00,WUHU216HW,2013-09-07 16:14:00,
2013-09-07 11:19:00,87.1,66.9,30.07,SSW,203,1.1,6.9,51,0.00,,,0.00,WUHU216HW,2013-09-07 16:19:00,
2013-09-07 11:24:00,87.3,67.1,30.07,WSW,248,1.6,1.6,51,0.00,,,0.00,WUHU216HW,2013-09-07 16:24:00,
2013-09-07 11:29:00,87.8,67.5,30.07,SW,225,0.4,2.2,51,0.00,,,0.00,WUHU216HW,2013-09-07 16:29:00,
2013-09-07 11:34:00,88.0,67.2,30.07,SW,225,1.1,2.2,50,0.00,,,0.00,WUHU216HW,2013-09-07 16:34:00,
2013-09-07 11:39:00,87.8,67.0,30.07,WSW,248,6.9,6.9,50,0.00,,,0.00,WUHU216HW,2013-09-07 16:39:00,
2013-09-07 11:44:00,87.7,66.8,30.07,WSW,248,3.4,9.8,50,0.00,,,0.00,WUHU216HW,2013-09-07 16:44:00,
2013-09-07 11:49:00,87.8,67.0,30.06,WSW,248,4.7,9.8,50,0.00,,,0.00,WUHU216HW,2013-09-07 16:49:00,
2013-09-07 11:54:00,88.2,67.3,30.06,SSW,203,3.8,6.5,50,0.00,,,0.00,WUHU216HW,2013-09-07 16:54:00,
2013-09-07 11:59:00,88.6,67.6,30.06,WSW,248,1.1,4.7,50,0.00,,,0.00,WUHU216HW,2013-09-07 16:59:00,
2013-09-07 12:04:00,88.9,68.0,30.06,WSW,248,6.3,6.3,50,0.00,,,0.00,WUHU216HW,2013-09-07 17:04:00,
2013-09-07 12:09:00,88.9,68.0,30.06,West,270,2.2,6.3,50,0.00,,,0.00,WUHU216HW,2013-09-07 17:09:00,
2013-09-07 12:14:00,89.3,67.0,30.06,WSW,248,5.8,6.3,48,0.00,,,0.00,WUHU216HW,2013-09-07 17:14:00,
2013-09-07 12:19:00,89.1,68.1,30.06,West,270,1.1,5.8,50,0.00,,,0.00,WUHU216HW,2013-09-07 17:19:00,
2013-09-07 12:24:00,89.3,67.6,30.06,WSW,248,7.2,7.2,49,0.00,,,0.00,WUHU216HW,2013-09-07 17:24:00,
2013-09-07 12:29:00,89.1,66.8,30.06,SSW,203,4.0,7.2,48,0.00,,,0.00,WUHU216HW,2013-09-07 17:29:00,
2013-09-07 12:34:00,89.3,68.2,30.06,WSW,248,5.6,7.2,50,0.00,,,0.00,WUHU216HW,2013-09-07 17:34:00,
2013-09-07 12:39:00,89.5,67.2,30.06,SW,225,1.8,6.5,48,0.00,,,0.00,WUHU216HW,2013-09-07 17:39:00,
2013-09-07 12:44:00,90.4,68.6,30.05,West,270,5.4,5.6,49,0.00,,,0.00,WUHU216HW,2013-09-07 17:44:00,
2013-09-07 12:49:00,90.0,67.0,30.05,SW,225,4.7,5.4,47,0.00,,,0.00,WUHU216HW,2013-09-07 17:49:00,
2013-09-07 12:54:00,90.2,67.8,30.05,WSW,248,4.0,5.4,48,0.00,,,0.00,WUHU216HW,2013-09-07 17:54:00,
2013-09-07 12:59:00,90.2,67.8,30.05,WSW,248,3.6,5.8,48,0.00,,,0.00,WUHU216HW,2013-09-07 17:59:00,
2013-09-07 13:04:00,90.4,68.6,30.05,SSW,203,2.2,5.8,49,0.00,,,0.00,WUHU216HW,2013-09-07 18:04:00,
2013-09-07 13:09:00,90.4,68.0,30.04,West,270,5.6,7.2,48,0.00,,,0.00,WUHU216HW,2013-09-07 18:09:00,
2013-09-07 13:14:00,90.4,67.3,30.04,West,270,6.3,7.2,47,0.00,,,0.00,WUHU216HW,2013-09-07 18:14:00,
2013-09-07 13:19:00,91.1,68.6,30.04,WSW,248,5.8,6.3,48,0.00,,,0.00,WUHU216HW,2013-09-07 18:19:00,
2013-09-07 13:24:00,91.1,69.2,30.04,WSW,248,1.8,5.8,49,0.00,,,0.00,WUHU216HW,2013-09-07 18:24:00,
2013-09-07 13:29:00,90.9,68.4,30.04,SW,225,1.8,5.8,48,0.00,,,0.00,WUHU216HW,2013-09-07 18:29:00,
2013-09-07 13:34:00,91.3,68.8,30.04,WSW,248,4.7,4.7,48,0.00,,,0.00,WUHU216HW,2013-09-07 18:34:00,
2013-09-07 13:39:00,91.1,68.0,30.04,WSW,248,1.3,4.7,47,0.00,,,0.00,WUHU216HW,2013-09-07 18:39:00,
2013-09-07 13:44:00,91.3,68.8,30.03,SW,225,4.3,4.7,48,0.00,,,0.00,WUHU216HW,2013-09-07 18:44:00,
2013-09-07 13:49:00,91.6,68.4,30.03,WSW,248,1.3,4.7,47,0.00,,,0.00,WUHU216HW,2013-09-07 18:49:00,
2013-09-07 13:54:00,91.4,68.2,30.03,WSW,248,6.0,6.0,47,0.00,,,0.00,WUHU216HW,2013-09-07 18:54:00,
2013-09-07 13:59:00,91.6,67.8,30.03,WSW,248,0.4,6.0,46,0.00,,,0.00,WUHU216HW,2013-09-07 18:59:00,
2013-09-07 14:04:00,91.8,68.6,30.03,WSW,248,4.0,6.0,47,0.00,,,0.00,WUHU216HW,2013-09-07 19:04:00,
2013-09-07 14:09:00,91.6,67.8,30.02,West,270,4.7,6.9,46,0.00,,,0.00,WUHU216HW,2013-09-07 19:09:00,
2013-09-07 14:14:00,91.8,68.0,30.02,WSW,248,3.8,6.9,46,0.00,,,0.00,WUHU216HW,2013-09-07 19:14:00,
2013-09-07 14:19:00,92.2,69.6,30.02,WSW,248,4.0,4.7,48,0.00,,,0.00,WUHU216HW,2013-09-07 19:19:00,
2013-09-07 14:24:00,92.7,68.8,30.01,WSW,248,4.9,4.9,46,0.00,,,0.00,WUHU216HW,2013-09-07 19:24:00,
2013-09-07 14:29:00,92.7,68.8,30.01,WSW,248,2.2,4.9,46,0.00,,,0.00,WUHU216HW,2013-09-07 19:29:00,
2013-09-07 14:34:00,92.3,68.4,30.01,WSW,248,7.6,9.8,46,0.00,,,0.00,WUHU216HW,2013-09-07 19:34:00,
2013-09-07 14:39:00,92.5,68.0,30.01,West,270,2.5,9.8,45,0.00,,,0.00,WUHU216HW,2013-09-07 19:39:00,
2013-09-07 14:44:00,92.9,67.0,30.01,WSW,248,8.3,8.3,43,0.00,,,0.00,WUHU216HW,2013-09-07 19:44:00,
2013-09-07 14:49:00,92.9,67.6,30.01,WSW,248,1.8,8.3,44,0.00,,,0.00,WUHU216HW,2013-09-07 19:49:00,
2013-09-07 14:54:00,93.4,67.4,30.01,SW,225,3.4,8.3,43,0.00,,,0.00,WUHU216HW,2013-09-07 19:54:00,
2013-09-07 14:59:00,94.0,68.0,30.01,WSW,248,2.2,6.9,43,0.00,,,0.00,WUHU216HW,2013-09-07 19:59:00,
2013-09-07 15:04:00,94.1,68.1,30.01,WSW,248,2.9,3.4,43,0.00,,,0.00,WUHU216HW,2013-09-07 20:04:00,
2013-09-07 15:09:00,94.3,68.9,30.00,West,270,7.6,7.6,44,0.00,,,0.00,WUHU216HW,2013-09-07 20:09:00,
2013-09-07 15:14:00,95.4,71.3,30.00,WSW,248,1.1,7.6,46,0.00,,,0.00,WUHU216HW,2013-09-07 20:14:00,
2013-09-07 15:19:00,95.6,69.5,30.00,SSE,158,1.6,7.6,43,0.00,,,0.00,WUHU216HW,2013-09-07 20:19:00,
2013-09-07 15:24:00,95.2,68.5,30.00,WSW,248,1.3,6.0,42,0.00,,,0.00,WUHU216HW,2013-09-07 20:24:00,
2013-09-07 15:29:00,95.0,68.3,29.99,SW,225,1.3,6.0,42,0.00,,,0.00,WUHU216HW,2013-09-07 20:29:00,
2013-09-07 15:34:00,95.4,69.3,29.99,WSW,248,6.5,6.5,43,0.00,,,0.00,WUHU216HW,2013-09-07 20:34:00,
2013-09-07 15:39:00,95.9,68.4,30.00,SW,225,4.0,6.5,41,0.00,,,0.00,WUHU216HW,2013-09-07 20:39:00,
2013-09-07 15:44:00,96.1,68.6,29.99,SE,135,0.0,6.5,41,0.00,,,0.00,WUHU216HW,2013-09-07 20:44:00,
2013-09-07 15:49:00,95.8,68.3,29.99,West,270,3.1,4.0,41,0.00,,,0.00,WUHU216HW,2013-09-07 20:49:00,
2013-09-07 15:54:00,95.6,68.8,29.99,SW,225,2.0,3.1,42,0.00,,,0.00,WUHU216HW,2013-09-07 20:54:00,
2013-09-07 15:59:00,96.1,69.3,29.99,SW,225,3.6,3.6,42,0.00,,,0.00,WUHU216HW,2013-09-07 20:59:00,
2013-09-07 16:04:00,95.8,68.9,29.98,SW,225,3.4,7.2,42,0.00,,,0.00,WUHU216HW,2013-09-07 21:04:00,
2013-09-07 16:09:00,95.6,68.8,29.98,WSW,248,1.3,7.2,42,0.00,,,0.00,WUHU216HW,2013-09-07 21:09:00,
2013-09-07 16:14:00,95.8,68.3,29.98,SW,225,2.2,3.4,41,0.00,,,0.00,WUHU216HW,2013-09-07 21:14:00,
2013-09-07 16:19:00,95.8,68.3,29.98,SW,225,1.3,2.2,41,0.00,,,0.00,WUHU216HW,2013-09-07 21:19:00,
2013-09-07 16:24:00,95.8,68.9,29.98,SW,225,5.6,5.6,42,0.00,,,0.00,WUHU216HW,2013-09-07 21:24:00,
2013-09-07 16:29:00,96.3,69.4,29.98,WSW,248,3.4,5.6,42,0.00,,,0.00,WUHU216HW,2013-09-07 21:29:00,
2013-09-07 16:34:00,96.5,68.2,29.98,SW,225,0.4,5.6,40,0.00,,,0.00,WUHU216HW,2013-09-07 21:34:00,
2013-09-07 16:39:00,95.9,67.8,29.98,WSW,248,3.6,3.6,40,0.00,,,0.00,WUHU216HW,2013-09-07 21:39:00,
2013-09-07 16:44:00,95.8,68.3,29.98,WSW,248,0.7,4.7,41,0.00,,,0.00,WUHU216HW,2013-09-07 21:44:00,
2013-09-07 16:49:00,96.1,69.3,29.98,WSW,248,2.7,4.7,42,0.00,,,0.00,WUHU216HW,2013-09-07 21:49:00,
2013-09-07 16:54:00,96.1,68.0,29.98,WSW,248,5.6,6.5,40,0.00,,,0.00,WUHU216HW,2013-09-07 21:54:00,
2013-09-07 16:59:00,95.9,67.8,29.98,WSW,248,4.0,6.5,40,0.00,,,0.00,WUHU216HW,2013-09-07 21:59:00,
2013-09-07 17:04:00,96.5,68.2,29.97,WSW,248,1.6,5.6,40,0.00,,,0.00,WUHU216HW,2013-09-07 22:04:00,
2013-09-07 17:09:00,96.5,69.0,29.97,SW,225,2.7,6.3,41,0.00,,,0.00,WUHU216HW,2013-09-07 22:09:00,
2013-09-07 17:14:00,96.7,69.1,29.97,SW,225,4.5,6.3,41,0.00,,,0.00,WUHU216HW,2013-09-07 22:14:00,
2013-09-07 17:19:00,96.5,69.6,29.97,WSW,248,4.0,4.5,42,0.00,,,0.00,WUHU216HW,2013-09-07 22:19:00,
2013-09-07 17:24:00,96.1,68.6,29.97,SW,225,1.1,4.5,41,0.00,,,0.00,WUHU216HW,2013-09-07 22:24:00,
2013-09-07 17:29:00,95.9,68.4,29.97,WSW,248,0.4,4.0,41,0.00,,,0.00,WUHU216HW,2013-09-07 22:29:00,
2013-09-07 17:34:00,96.5,69.0,29.97,WSW,248,5.1,5.1,41,0.00,,,0.00,WUHU216HW,2013-09-07 22:34:00,
2013-09-07 17:39:00,95.2,67.8,29.97,SW,225,2.5,7.4,41,0.00,,,0.00,WUHU216HW,2013-09-07 22:39:00,
2013-09-07 17:44:00,95.4,68.0,29.97,WSW,248,2.0,7.4,41,0.00,,,0.00,WUHU216HW,2013-09-07 22:44:00,
2013-09-07 17:49:00,95.8,68.9,29.97,SW,225,3.6,5.8,42,0.00,,,0.00,WUHU216HW,2013-09-07 22:49:00,
2013-09-07 17:54:00,95.6,68.8,29.97,WSW,248,2.0,5.8,42,0.00,,,0.00,WUHU216HW,2013-09-07 22:54:00,
2013-09-07 17:59:00,95.8,68.9,29.97,WSW,248,2.5,3.6,42,0.00,,,0.00,WUHU216HW,2013-09-07 22:59:00,
2013-09-07 18:04:00,95.6,68.1,29.97,WSW,248,0.9,3.8,41,0.00,,,0.00,WUHU216HW,2013-09-07 23:04:00,
2013-09-07 18:09:00,95.9,69.1,29.97,WSW,248,2.0,3.8,42,0.00,,,0.00,WUHU216HW,2013-09-07 23:09:00,
2013-09-07 18:14:00,95.8,68.9,29.97,WSW,248,0.0,2.7,42,0.00,,,0.00,WUHU216HW,2013-09-07 23:14:00,
2013-09-07 18:19:00,95.8,68.9,29.97,WSW,248,0.0,2.5,42,0.00,,,0.00,WUHU216HW,2013-09-07 23:19:00,
2013-09-07 18:24:00,95.2,68.5,29.96,WSW,248,0.0,0.0,42,0.00,,,0.00,WUHU216HW,2013-09-07 23:24:00,
2013-09-07 18:29:00,93.2,68.0,29.97,WSW,248,0.4,1.6,44,0.00,,,0.00,WUHU216HW,2013-09-07 23:29:00,
2013-09-07 18:34:00,92.0,68.1,29.97,WSW,248,0.0,1.6,46,0.00,,,0.00,WUHU216HW,2013-09-07 23:34:00,
2013-09-07 18:39:00,91.4,68.2,29.97,WSW,248,0.0,0.4,47,0.00,,,0.00,WUHU216HW,2013-09-07 23:39:00,
2013-09-07 18:44:00,91.1,68.0,29.97,WSW,248,0.0,0.0,47,0.00,,,0.00,WUHU216HW,2013-09-07 23:44:00,
2013-09-07 18:49:00,90.2,67.8,29.96,WSW,248,0.0,0.0,48,0.00,,,0.00,WUHU216HW,2013-09-07 23:49:00,
2013-09-07 18:54:00,89.5,67.8,29.96,WSW,248,0.0,0.0,49,0.00,,,0.00,WUHU216HW,2013-09-07 23:54:00,
2013-09-07 18:59:00,88.6,67.6,29.96,WSW,248,0.0,0.0,50,0.00,,,0.00,WUHU216HW,2013-09-07 23:59:00,
2013-09-07 19:04:00,87.5,67.1,29.96,WSW,248,0.0,0.0,51,0.00,,,0.00,WUHU216HW,2013-09-08 00:04:00,
2013-09-07 19:09:00,87.1,66.9,29.96,WSW,248,0.0,0.0,51,0.00,,,0.00,WUHU216HW,2013-09-08 00:09:00,
2013-09-07 19:14:00,86.8,67.1,29.96,WSW,248,0.0,0.0,52,0.00,,,0.00,WUHU216HW,2013-09-08 00:14:00,
2013-09-07 19:19:00,86.4,66.7,29.96,WSW,248,0.0,0.0,52,0.00,,,0.00,WUHU216HW,2013-09-08 00:19:00,
2013-09-07 19:24:00,86.0,66.4,29.96,WSW,248,0.0,0.0,52,0.00,,,0.00,WUHU216HW,2013-09-08 00:24:00,
2013-09-07 19:29:00,85.0,64.9,29.96,WSW,248,0.0,0.0,51,0.00,,,0.00,WUHU216HW,2013-09-08 00:29:00,
2013-09-07 19:34:00,84.2,63.7,29.97,WSW,248,0.0,0.0,50,0.00,,,0.00,WUHU216HW,2013-09-08 00:34:00,
2013-09-07 19:39:00,83.7,63.2,29.97,WSW,248,0.0,0.0,50,0.00,,,0.00,WUHU216HW,2013-09-08 00:39:00,
2013-09-07 19:44:00,83.5,61.1,29.96,WSW,248,0.0,0.0,47,0.00,,,0.00,WUHU216HW,2013-09-08 00:44:00,
2013-09-07 19:49:00,83.2,59.0,29.96,WSW,248,0.0,0.0,44,0.00,,,0.00,WUHU216HW,2013-09-08 00:49:00,
2013-09-07 19:54:00,83.2,57.7,29.96,WSW,248,0.0,0.0,42,0.00,,,0.00,WUHU216HW,2013-09-08 00:54:00,
2013-09-07 19:59:00,83.0,50.8,29.96,WSW,248,0.7,0.7,33,0.00,,,0.00,WUHU216HW,2013-09-08 00:59:00,
2013-09-07 20:04:00,82.4,53.5,29.97,WSW,248,0.4,1.3,37,0.00,,,0.00,WUHU216HW,2013-09-08 01:04:00,
2013-09-07 20:09:00,81.9,49.8,29.97,WSW,248,0.7,1.3,33,0.00,,,0.00,WUHU216HW,2013-09-08 01:09:00,
2013-09-07 20:14:00,81.7,50.4,29.97,WSW,248,0.9,1.1,34,0.00,,,0.00,WUHU216HW,2013-09-08 01:14:00,
2013-09-07 20:19:00,81.9,52.9,29.97,WSW,248,0.2,1.1,37,0.00,,,0.00,WUHU216HW,2013-09-08 01:19:00,
2013-09-07 20:24:00,82.1,56.1,29.97,WSW,248,0.0,0.9,41,0.00,,,0.00,WUHU216HW,2013-09-08 01:24:00,
2013-09-07 20:29:00,82.1,56.1,29.97,WSW,248,0.0,0.2,41,0.00,,,0.00,WUHU216HW,2013-09-08 01:29:00,
2013-09-07 20:34:00,82.3,54.8,29.97,WSW,248,0.0,0.0,39,0.00,,,0.00,WUHU216HW,2013-09-08 01:34:00,
2013-09-07 20:39:00,82.1,56.1,29.97,WSW,248,0.0,0.0,41,0.00,,,0.00,WUHU216HW,2013-09-08 01:39:00,
2013-09-07 20:44:00,81.7,55.2,29.97,WSW,248,1.1,1.1,40,0.00,,,0.00,WUHU216HW,2013-09-08 01:44:00,
2013-09-07 20:49:00,81.5,56.3,29.98,WSW,248,1.1,1.1,42,0.00,,,0.00,WUHU216HW,2013-09-08 01:49:00,
2013-09-07 20:54:00,80.6,52.7,29.98,WSW,248,0.0,1.1,38,0.00,,,0.00,WUHU216HW,2013-09-08 01:54:00,
2013-09-07 20:59:00,80.5,47.8,29.98,WSW,248,0.0,1.1,32,0.00,,,0.00,WUHU216HW,2013-09-08 01:59:00,
2013-09-07 21:04:00,80.5,44.2,29.98,WSW,248,0.0,0.0,28,0.00,,,0.00,WUHU216HW,2013-09-08 02:04:00,
2013-09-07 21:09:00,80.3,41.9,29.98,WSW,248,0.0,0.0,26,0.00,,,0.00,WUHU216HW,2013-09-08 02:09:00,
2013-09-07 21:14:00,79.9,38.5,29.98,WSW,248,1.1,1.1,23,0.00,,,0.00,WUHU216HW,2013-09-08 02:14:00,
2013-09-07 21:19:00,79.7,29.5,29.98,WSW,248,1.6,1.6,16,0.00,,,0.00,WUHU216HW,2013-09-08 02:19:00,
2013-09-07 21:24:00,79.6,35.0,29.98,WSW,248,1.3,1.6,20,0.00,,,0.00,WUHU216HW,2013-09-08 02:24:00,
2013-09-07 21:29:00,79.0,32.9,29.98,ESE,113,1.1,1.6,19,0.00,,,0.00,WUHU216HW,2013-09-08 02:29:00,
2013-09-07 21:34:00,79.0,22.8,29.98,ESE,113,1.1,1.6,13,0.00,,,0.00,WUHU216HW,2013-09-08 02:34:00,
2013-09-07 21:39:00,78.8,27.7,29.98,ESE,113,1.1,1.3,16,0.00,,,0.00,WUHU216HW,2013-09-08 02:39:00,
2013-09-07 21:44:00,78.7,25.9,29.99,ESE,113,0.7,1.3,15,0.00,,,0.00,WUHU216HW,2013-09-08 02:44:00,
2013-09-07 21:49:00,78.3,22.2,29.98,ESE,113,0.7,1.1,13,0.00,,,0.00,WUHU216HW,2013-09-08 02:49:00,
2013-09-07 21:54:00,78.1,17.1,29.99,ESE,113,1.1,1.3,2,0.00,,,0.00,WUHU216HW,2013-09-08 02:54:00,
2013-09-07 21:59:00,78.5,17.4,29.99,SE,135,0.9,1.3,1,0.00,,,0.00,WUHU216HW,2013-09-08 02:59:00,
2013-09-07 22:04:00,78.8,17.6,29.99,SE,135,0.7,1.1,1,0.00,,,0.00,WUHU216HW,2013-09-08 03:04:00,
2013-09-07 22:09:00,78.8,17.6,29.98,SSE,158,0.4,0.9,1,0.00,,,0.00,WUHU216HW,2013-09-08 03:09:00,
2013-09-07 22:14:00,78.8,17.6,29.99,SE,135,1.3,1.3,2,0.00,,,0.00,WUHU216HW,2013-09-08 03:14:00,
2013-09-07 22:19:00,78.7,17.6,29.99,SE,135,0.9,1.6,1,0.00,,,0.00,WUHU216HW,2013-09-08 03:19:00,
2013-09-07 22:24:00,78.3,17.3,29.99,SE,135,0.4,1.6,1,0.00,,,0.00,WUHU216HW,2013-09-08 03:24:00,
2013-09-07 22:29:00,78.1,17.1,29.99,SE,135,1.1,1.1,1,0.00,,,0.00,WUHU216HW,2013-09-08 03:29:00,
2013-09-07 22:34:00,78.1,17.1,29.98,SE,135,0.7,1.1,1,0.00,,,0.00,WUHU216HW,2013-09-08 03:34:00,
2013-09-07 22:39:00,78.1,17.1,29.99,SE,135,1.1,1.1,1,0.00,,,0.00,WUHU216HW,2013-09-08 03:39:00,
2013-09-07 22:44:00,78.1,17.1,29.99,SE,135,0.0,1.1,1,0.00,,,0.00,WUHU216HW,2013-09-08 03:44:00,
2013-09-07 22:49:00,78.1,17.1,29.99,SSE,158,1.1,1.1,1,0.00,,,0.00,WUHU216HW,2013-09-08 03:49:00,
2013-09-07 22:54:00,78.5,17.4,29.99,SE,135,0.9,1.1,1,0.00,,,0.00,WUHU216HW,2013-09-08 03:54:00,
2013-09-07 22:59:00,78.5,17.4,29.99,SE,135,0.0,1.1,1,0.00,,,0.00,WUHU216HW,2013-09-08 03:59:00,
2013-09-07 23:01:00,78.5,17.4,29.99,SE,135,1.1,1.1,6,0.00,,,0.00,WUHU216HW,2013-09-08 04:01:00,
2013-09-07 23:06:00,78.5,17.4,29.99,SSE,158,0.4,1.1,6,0.00,,,0.00,WUHU216HW,2013-09-08 04:06:00,
2013-09-07 23:11:00,78.5,17.4,29.98,SE,135,0.9,1.1,6,0.00,,,0.00,WUHU216HW,2013-09-08 04:11:00,
2013-09-07 23:16:00,78.3,17.3,29.99,ESE,113,0.2,0.9,8,0.00,,,0.00,WUHU216HW,2013-09-08 04:16:00,
2013-09-07 23:21:00,78.1,17.1,29.99,SE,135,0.7,0.9,10,0.00,,,0.00,WUHU216HW,2013-09-08 04:21:00,
2013-09-07 23:26:00,78.1,17.1,29.99,SSE,158,0.2,0.7,7,0.00,,,0.00,WUHU216HW,2013-09-08 04:26:00,
2013-09-07 23:31:00,78.3,17.3,29.99,SSE,158,1.3,1.6,6,0.00,,,0.00,WUHU216HW,2013-09-08 04:31:00,
2013-09-07 23:36:00,78.5,17.4,29.99,SW,225,0.0,1.6,7,0.00,,,0.00,WUHU216HW,2013-09-08 04:36:00,
2013-09-07 23:41:00,78.5,17.4,29.98,SE,135,0.4,1.3,8,0.00,,,0.00,WUHU216HW,2013-09-08 04:41:00,
2013-09-07 23:46:00,78.7,17.6,29.98,South,180,0.0,0.4,10,0.00,,,0.00,WUHU216HW,2013-09-08 04:46:00,
2013-09-07 23:51:00,78.7,17.6,29.98,SE,135,2.0,2.0,8,0.00,,,0.00,WUHU216HW,2013-09-08 04:51:00,
2013-09-07 23:56:00,78.7,17.6,29.98,WSW,248,1.1,2.0,8,0.00,,,0.00,WUHU216HW,2013-09-08 04:56:00,